Time;durP1;ratioP1;P1;durP2;ratioP2;P2;SDS_P1;SDS_P2;PMS_P1;PMS_P2;Temp;Humidity;BMP_temperature;BMP_pressure;BME280_temperature;BME280_humidity;BME280_pressure;Samples;Min_cycle;Max_cycle;Signal;HPM_P1;HPM_P2
2022/07/09 00:00:14;;;;;;;1.57;1.33;;;17.40;64.10;17.80;97548.00;;;;5022727;28;20214;-91
2022/07/09 00:02:41;;;;;;;1.73;1.10;;;17.30;64.10;17.80;97545.00;;;;5033589;28;20193;-92
2022/07/09 00:05:10;;;;;;;1.33;1.10;;;17.30;64.10;17.70;97551.00;;;;5024769;28;20642;-91
2022/07/09 00:07:39;;;;;;;1.30;1.20;;;17.30;64.40;17.70;97544.00;;;;5026225;28;20213;-91
2022/07/09 00:10:07;;;;;;;1.40;1.30;;;17.30;64.40;17.70;97542.00;;;;5014460;28;20240;-91
2022/07/09 00:12:34;;;;;;;1.60;1.30;;;16.00;63.50;17.70;97534.00;;;;5027779;28;20225;-91
2022/07/09 00:15:01;;;;;;;2.10;1.23;;;17.20;64.50;17.60;97532.00;;;;5013583;28;20252;-91
2022/07/09 00:17:31;;;;;;;1.40;1.10;;;17.20;64.60;17.60;97524.00;;;;5017088;28;20201;-89
2022/07/09 00:19:58;;;;;;;1.20;1.10;;;17.20;64.60;17.60;97533.00;;;;5025906;28;20283;-90
2022/07/09 00:22:27;;;;;;;0.93;0.93;;;17.20;64.50;17.60;97537.00;;;;5023219;28;20281;-91
2022/07/09 00:24:55;;;;;;;1.93;1.23;;;17.20;64.60;17.60;97527.00;;;;5021357;28;20244;-89
2022/07/09 00:27:23;;;;;;;1.47;1.37;;;17.20;64.60;17.60;97528.00;;;;5022704;28;20194;-91
2022/07/09 00:29:50;;;;;;;1.07;1.03;;;17.20;64.50;17.60;97529.00;;;;5019094;28;20201;-90
2022/07/09 00:32:18;;;;;;;1.50;1.40;;;17.10;64.50;17.60;97526.00;;;;5027183;28;20261;-91
2022/07/09 00:34:45;;;;;;;1.47;1.37;;;17.10;64.70;17.50;97525.00;;;;5014457;28;20367;-91
2022/07/09 00:37:13;;;;;;;1.30;1.13;;;17.10;64.80;17.50;97523.00;;;;5017555;28;20201;-91
2022/07/09 00:39:40;;;;;;;2.70;1.60;;;17.10;64.90;17.50;97519.00;;;;5032919;28;20276;-90
2022/07/09 00:42:10;;;;;;;2.10;1.43;;;17.10;65.00;17.50;97518.00;;;;5018725;28;20218;-90
2022/07/09 00:44:38;;;;;;;1.73;1.40;;;17.00;65.00;17.40;97516.00;;;;5031859;28;20225;-91
2022/07/09 00:47:07;;;;;;;1.30;1.20;;;17.00;65.00;17.40;97512.00;;;;5038319;22;20706;-87
2022/07/09 00:49:41;;;;;;;2.00;1.40;;;17.00;65.10;17.40;97511.00;;;;5034130;28;20255;-88
2022/07/09 00:52:12;;;;;;;2.07;1.20;;;17.00;65.30;17.40;97503.00;;;;5027553;28;20738;-89
2022/07/09 00:54:42;;;;;;;1.53;1.13;;;16.90;65.40;17.30;97497.00;;;;5047254;28;20545;-89
2022/07/09 00:57:12;;;;;;;1.87;1.60;;;16.90;65.40;17.30;97497.00;;;;5035243;28;20221;-87
2022/07/09 00:59:41;;;;;;;3.57;1.40;;;16.90;65.40;17.30;97504.00;;;;5034723;28;20239;-88
2022/07/09 01:02:10;;;;;;;2.07;1.20;;;16.90;65.40;17.30;97501.00;;;;5040638;28;20207;-89
2022/07/09 01:04:39;;;;;;;1.67;1.57;;;16.90;65.40;17.30;97504.00;;;;5046027;28;20205;-88
2022/07/09 01:07:06;;;;;;;1.10;1.00;;;16.80;65.40;17.20;97503.00;;;;5039925;28;20315;-88
2022/07/09 01:09:34;;;;;;;1.43;1.27;;;16.80;65.50;17.30;97495.00;;;;5022977;28;20202;-89
2022/07/09 01:12:02;;;;;;;1.67;1.20;;;16.80;65.60;17.30;97502.00;;;;5031071;28;20229;-88
2022/07/09 01:14:31;;;;;;;1.50;1.40;;;16.80;66.30;17.30;97492.00;;;;5039447;28;20740;-87
2022/07/09 01:17:00;;;;;;;2.80;1.30;;;16.90;65.70;17.30;97493.00;;;;5041190;28;20283;-88
2022/07/09 01:19:28;;;;;;;2.27;1.20;;;16.90;65.60;17.30;97504.00;;;;5041077;28;20201;-88
2022/07/09 01:21:57;;;;;;;1.97;1.20;;;16.90;65.50;17.30;97494.00;;;;5060021;28;20200;-89
2022/07/09 01:24:25;;;;;;;1.30;1.00;;;16.90;65.50;17.30;97494.00;;;;5042630;28;20202;-88
2022/07/09 01:26:55;;;;;;;2.77;1.23;;;16.90;65.40;17.30;97495.00;;;;5030371;28;20233;-89
2022/07/09 01:29:23;;;;;;;1.13;1.00;;;16.90;65.40;17.30;97492.00;;;;5044985;28;20237;-88
2022/07/09 01:31:50;;;;;;;1.90;1.30;;;16.90;65.30;17.30;97486.00;;;;5053194;28;20224;-88
2022/07/09 01:34:18;;;;;;;1.37;1.20;;;16.90;65.30;17.30;97487.00;;;;5033579;28;20225;-88
2022/07/09 01:36:45;;;;;;;2.73;1.30;;;16.90;65.40;17.30;97484.00;;;;5033151;28;20206;-89
2022/07/09 01:39:14;;;;;;;2.03;1.40;;;16.90;65.50;17.30;97480.00;;;;5032637;28;20281;-88
2022/07/09 01:41:41;;;;;;;2.47;1.40;;;16.90;65.60;17.30;97482.00;;;;5052417;28;20227;-88
2022/07/09 01:44:08;;;;;;;2.63;1.33;;;16.90;65.50;17.40;97485.00;;;;5032137;28;20193;-89
2022/07/09 01:46:36;;;;;;;2.47;1.33;;;16.90;65.60;17.40;97481.00;;;;5052601;28;20235;-89
2022/07/09 01:49:04;;;;;;;1.90;1.33;;;16.90;65.70;17.40;97473.00;;;;5042430;28;20197;-88
2022/07/09 01:51:32;;;;;;;0.90;0.90;;;17.00;65.80;17.50;97469.00;;;;5032797;28;20308;-87
2022/07/09 01:53:59;;;;;;;2.30;1.17;;;17.00;66.00;17.50;97468.00;;;;5037875;28;20613;-88
2022/07/09 01:56:27;;;;;;;1.60;1.40;;;17.00;66.10;17.60;97459.00;;;;5044896;28;20267;-88
2022/07/09 01:58:54;;;;;;;1.77;1.27;;;17.10;66.10;17.60;97454.00;;;;5044334;28;20189;-88
2022/07/09 02:01:21;;;;;;;1.30;1.20;;;17.10;66.20;17.60;97454.00;;;;5032991;28;20576;-89
2022/07/09 02:03:49;;;;;;;1.20;1.03;;;17.10;66.20;17.70;97451.00;;;;5034495;28;20628;-88
2022/07/09 02:06:16;;;;;;;2.07;1.10;;;17.20;66.00;17.70;97453.00;;;;5033206;28;20324;-88
2022/07/09 02:08:43;;;;;;;2.40;1.43;;;17.20;66.00;17.70;97449.00;;;;5048063;28;20240;-88
2022/07/09 02:11:11;;;;;;;1.67;1.20;;;17.20;66.00;17.80;97455.00;;;;5034514;28;20616;-88
2022/07/09 02:13:39;;;;;;;1.77;1.20;;;17.30;65.90;17.80;97443.00;;;;5033718;28;20229;-88
2022/07/09 02:16:08;;;;;;;1.63;1.20;;;17.30;65.90;17.80;97450.00;;;;5032528;28;20207;-88
2022/07/09 02:18:35;;;;;;;0.93;0.93;;;17.30;66.10;17.90;97457.00;;;;5016017;28;20221;-88
2022/07/09 02:21:04;;;;;;;2.17;1.00;;;17.30;66.10;17.90;97452.00;;;;5032487;28;20200;-88
2022/07/09 02:23:32;;;;;;;1.20;1.10;;;17.40;66.00;18.00;97453.00;;;;5044955;28;20200;-88
2022/07/09 02:25:59;;;;;;;1.30;0.90;;;17.40;66.10;18.00;97460.00;;;;5029954;28;20197;-88
2022/07/09 02:28:26;;;;;;;2.17;1.20;;;17.40;66.10;18.10;97457.00;;;;5032290;28;20264;-89
2022/07/09 02:30:55;;;;;;;2.40;1.20;;;17.50;66.20;18.10;97457.00;;;;5032500;28;20292;-88
2022/07/09 02:33:22;;;;;;;1.30;1.10;;;17.50;66.30;18.10;97454.00;;;;5032284;28;20221;-90
2022/07/09 02:35:49;;;;;;;2.10;0.90;;;17.50;66.30;18.10;97450.00;;;;5027400;28;20285;-88
2022/07/09 02:38:16;;;;;;;1.50;1.07;;;17.60;66.30;18.20;97446.00;;;;5039002;28;20304;-88
2022/07/09 02:40:44;;;;;;;1.30;1.20;;;17.60;66.50;18.20;97438.00;;;;5032018;28;20197;-89
2022/07/09 02:43:11;;;;;;;1.23;1.07;;;17.60;66.60;18.20;97445.00;;;;5031304;28;20211;-88
2022/07/09 02:45:38;;;;;;;2.03;1.27;;;17.60;66.70;18.20;97439.00;;;;5028435;28;20272;-88
2022/07/09 02:48:07;;;;;;;0.83;0.77;;;17.70;66.60;18.20;97445.00;;;;5045900;28;20256;-88
2022/07/09 02:50:34;;;;;;;1.33;1.10;;;17.70;66.40;18.30;97445.00;;;;5019697;28;20284;-88
2022/07/09 02:53:01;;;;;;;1.20;1.10;;;17.70;66.20;18.30;97447.00;;;;5029288;28;20233;-88
2022/07/09 02:55:28;;;;;;;1.83;1.47;;;17.70;66.10;18.30;97451.00;;;;5034111;28;20213;-87
2022/07/09 02:57:55;;;;;;;2.13;1.47;;;17.80;66.10;18.30;97458.00;;;;5043634;28;20216;-88
2022/07/09 03:00:23;;;;;;;1.87;1.20;;;17.80;66.10;18.40;97454.00;;;;5035367;28;20280;-88
2022/07/09 03:02:50;;;;;;;1.87;1.40;;;17.80;66.10;18.40;97456.00;;;;5031758;28;20209;-88
2022/07/09 03:05:19;;;;;;;1.10;1.00;;;17.80;66.10;18.40;97453.00;;;;5032013;28;20201;-88
2022/07/09 03:07:46;;;;;;;3.43;1.50;;;17.80;66.00;18.40;97450.00;;;;5031948;28;20229;-87
2022/07/09 03:10:13;;;;;;;1.47;1.10;;;17.90;66.00;18.50;97446.00;;;;5046948;28;20228;-88
2022/07/09 03:12:41;;;;;;;2.10;1.43;;;17.90;65.90;18.50;97452.00;;;;5035859;28;20316;-88
2022/07/09 03:15:09;;;;;;;2.00;1.50;;;17.90;65.80;18.50;97457.00;;;;5051733;28;20201;-89
2022/07/09 03:17:37;;;;;;;1.33;1.20;;;17.90;65.80;18.50;97453.00;;;;5034680;28;20229;-88
2022/07/09 03:20:05;;;;;;;1.20;1.10;;;17.90;65.80;18.50;97450.00;;;;5032193;28;20213;-89
2022/07/09 03:22:34;;;;;;;2.10;1.20;;;18.00;65.90;18.50;97446.00;;;;5031681;28;20225;-88
2022/07/09 03:25:01;;;;;;;1.20;1.10;;;18.00;66.00;18.60;97445.00;;;;5045169;28;20204;-89
2022/07/09 03:27:28;;;;;;;1.10;1.10;;;18.00;66.10;18.60;97445.00;;;;5032857;28;20694;-89
2022/07/09 03:29:56;;;;;;;1.47;1.20;;;18.00;65.90;18.60;97440.00;;;;5033366;28;20243;-88
2022/07/09 03:32:23;;;;;;;1.07;1.07;;;18.00;65.90;18.60;97446.00;;;;5040658;28;20225;-88
2022/07/09 03:34:52;;;;;;;1.47;1.10;;;18.00;65.90;18.60;97450.00;;;;5027559;28;20618;-88
2022/07/09 03:37:19;;;;;;;2.03;1.27;;;18.10;66.10;18.60;97442.00;;;;5045982;28;20700;-89
2022/07/09 03:39:48;;;;;;;1.57;0.97;;;18.10;66.00;18.70;97445.00;;;;5035605;28;20567;-89
2022/07/09 03:42:15;;;;;;;1.27;1.17;;;18.10;66.00;18.70;97441.00;;;;5040122;28;20620;-88
2022/07/09 03:44:43;;;;;;;1.20;1.10;;;18.10;65.90;18.70;97449.00;;;;5032077;28;20193;-89
2022/07/09 03:47:10;;;;;;;0.97;0.90;;;18.10;66.00;18.70;97448.00;;;;5056856;28;20251;-89
2022/07/09 03:49:37;;;;;;;1.27;1.17;;;18.10;66.10;18.70;97451.00;;;;5046278;28;20225;-88
2022/07/09 03:52:06;;;;;;;1.20;0.93;;;18.10;66.30;18.70;97442.00;;;;5038596;28;20251;-89
2022/07/09 03:54:33;;;;;;;0.90;0.90;;;18.20;66.20;18.80;97440.00;;;;5034009;28;20763;-88
2022/07/09 03:57:02;;;;;;;2.10;1.30;;;18.20;66.10;18.80;97449.00;;;;5035467;28;20222;-89
2022/07/09 03:59:29;;;;;;;1.57;1.13;;;18.20;66.00;18.80;97448.00;;;;5036077;28;20224;-89
2022/07/09 04:01:56;;;;;;;1.20;0.93;;;18.20;66.00;18.80;97453.00;;;;5035017;28;20229;-88
2022/07/09 04:04:23;;;;;;;1.33;1.03;;;18.20;65.80;18.90;97454.00;;;;5042741;28;20200;-88
2022/07/09 04:06:51;;;;;;;1.10;1.00;;;18.30;65.90;18.90;97457.00;;;;5025471;28;20248;-87
2022/07/09 04:09:18;;;;;;;2.07;1.07;;;18.30;65.90;18.90;97455.00;;;;5050834;28;20441;-88
2022/07/09 04:11:45;;;;;;;1.67;1.30;;;18.30;65.90;18.90;97444.00;;;;5040551;28;20206;-89
2022/07/09 04:14:14;;;;;;;1.50;1.10;;;18.30;65.80;18.90;97453.00;;;;5049563;28;20316;-88
2022/07/09 04:16:41;;;;;;;2.33;0.93;;;18.30;65.80;19.00;97449.00;;;;5038939;28;20671;-88
2022/07/09 04:19:09;;;;;;;1.43;0.90;;;18.40;65.80;19.00;97458.00;;;;5035106;28;20213;-87
2022/07/09 04:21:36;;;;;;;1.20;0.90;;;18.40;65.80;19.00;97450.00;;;;5034798;28;20255;-88
2022/07/09 04:24:05;;;;;;;1.67;1.17;;;18.40;65.60;19.10;97451.00;;;;5040282;28;20224;-88
2022/07/09 04:26:32;;;;;;;1.00;1.00;;;18.40;65.50;19.10;97458.00;;;;5044278;28;20224;-87
2022/07/09 04:28:59;;;;;;;0.80;0.70;;;18.50;66.40;19.10;97464.00;;;;5042087;28;20802;-88
2022/07/09 04:31:27;;;;;;;2.73;1.03;;;18.50;65.70;19.20;97462.00;;;;5034602;28;20204;-88
2022/07/09 04:33:55;;;;;;;1.10;1.00;;;18.50;65.60;19.20;97464.00;;;;5034605;28;20252;-88
2022/07/09 04:36:22;;;;;;;1.83;1.10;;;18.50;65.60;19.20;97471.00;;;;5031948;28;20217;-88
2022/07/09 04:38:49;;;;;;;1.27;1.17;;;18.60;65.70;19.30;97466.00;;;;5034509;28;20233;-89
2022/07/09 04:41:16;;;;;;;1.50;1.10;;;18.60;65.60;19.30;97460.00;;;;5034361;28;20190;-89
2022/07/09 04:43:44;;;;;;;1.07;0.97;;;18.60;65.40;19.30;97468.00;;;;5033973;28;20202;-89
2022/07/09 04:46:11;;;;;;;2.23;1.37;;;18.70;65.50;19.40;97471.00;;;;5033318;28;20236;-88
2022/07/09 04:48:39;;;;;;;1.10;1.00;;;18.70;66.30;19.40;97465.00;;;;5052333;28;20651;-89
2022/07/09 04:51:06;;;;;;;1.23;1.13;;;18.70;65.50;19.50;97473.00;;;;5048487;28;20736;-88
2022/07/09 04:53:34;;;;;;;1.10;1.00;;;18.80;65.60;19.50;97472.00;;;;5023205;28;20789;-89
2022/07/09 04:56:01;;;;;;;1.47;1.20;;;18.80;65.60;19.60;97477.00;;;;5033774;28;20232;-88
2022/07/09 04:58:30;;;;;;;1.67;1.00;;;18.90;65.50;19.60;97479.00;;;;5034146;28;20264;-89
2022/07/09 05:00:57;;;;;;;1.17;1.00;;;18.90;65.30;19.60;97470.00;;;;5044471;28;20648;-88
2022/07/09 05:03:24;;;;;;;2.90;1.23;;;18.90;65.50;19.70;97479.00;;;;5042268;28;20267;-87
2022/07/09 05:05:53;;;;;;;1.60;1.00;;;19.00;65.60;19.70;97473.00;;;;5032148;28;20235;-88
2022/07/09 05:08:20;;;;;;;0.97;0.90;;;19.00;65.60;19.80;97485.00;;;;5033789;28;20951;-89
2022/07/09 05:10:47;;;;;;;1.40;1.07;;;19.10;65.60;19.80;97477.00;;;;5033599;28;20255;-88
2022/07/09 05:13:14;;;;;;;1.30;1.10;;;19.10;65.40;19.80;97476.00;;;;5034931;28;20286;-88
2022/07/09 05:15:42;;;;;;;2.67;1.00;;;19.10;65.30;19.90;97482.00;;;;5040786;28;20280;-88
2022/07/09 05:18:09;;;;;;;1.97;1.00;;;19.20;65.40;19.90;97483.00;;;;5053647;28;21060;-87
2022/07/09 05:20:36;;;;;;;1.10;1.00;;;19.20;65.50;20.00;97485.00;;;;5020696;28;20666;-86
2022/07/09 05:23:04;;;;;;;1.27;1.00;;;19.20;65.50;20.00;97478.00;;;;5013935;28;20301;-86
2022/07/09 05:25:31;;;;;;;1.13;1.00;;;19.30;65.40;20.10;97477.00;;;;5037507;28;20288;-86
2022/07/09 05:27:59;;;;;;;1.37;0.93;;;19.30;65.10;20.10;97476.00;;;;5053076;28;20220;-86
2022/07/09 05:30:26;;;;;;;1.53;0.90;;;19.30;64.90;20.10;97481.00;;;;5042333;28;20270;-86
2022/07/09 05:32:53;;;;;;;1.80;1.10;;;19.40;65.10;20.20;97484.00;;;;5043920;28;20198;-86
2022/07/09 05:35:20;;;;;;;1.93;1.00;;;19.40;65.10;20.20;97490.00;;;;5033301;28;20263;-86
2022/07/09 05:37:47;;;;;;;1.20;1.17;;;19.40;64.90;20.20;97483.00;;;;5044775;28;20217;-87
2022/07/09 05:40:16;;;;;;;1.30;0.97;;;19.50;64.80;20.20;97486.00;;;;5053025;28;20232;-86
2022/07/09 05:42:43;;;;;;;0.80;0.80;;;19.50;64.70;20.20;97484.00;;;;5033755;28;20240;-86
2022/07/09 05:45:11;;;;;;;2.00;1.20;;;19.50;64.80;20.30;97481.00;;;;5032201;28;20238;-86
2022/07/09 05:47:38;;;;;;;1.60;0.90;;;19.50;64.80;20.30;97480.00;;;;5038681;28;20239;-86
2022/07/09 05:50:07;;;;;;;1.00;0.90;;;19.50;64.70;20.30;97476.00;;;;5029118;28;20201;-86
2022/07/09 05:52:34;;;;;;;1.13;0.90;;;19.60;64.70;20.30;97486.00;;;;5032828;28;20205;-86
2022/07/09 05:55:03;;;;;;;1.50;1.10;;;19.60;64.50;20.30;97477.00;;;;5032180;28;20316;-87
2022/07/09 05:57:31;;;;;;;1.63;1.00;;;19.60;64.50;20.30;97483.00;;;;5031684;28;20225;-85
2022/07/09 05:59:59;;;;;;;1.47;1.10;;;19.60;64.50;20.30;97481.00;;;;5032604;28;20577;-86
2022/07/09 06:02:26;;;;;;;1.33;1.00;;;19.60;64.40;20.30;97477.00;;;;5032996;28;20208;-86
2022/07/09 06:04:54;;;;;;;1.30;0.90;;;19.60;64.30;20.30;97478.00;;;;5032279;28;20219;-87
2022/07/09 06:07:21;;;;;;;4.30;1.53;;;19.60;64.20;20.30;97477.00;;;;5019193;28;20222;-86
2022/07/09 06:09:48;;;;;;;2.30;1.13;;;19.60;64.30;20.30;97480.00;;;;5031379;28;20221;-87
2022/07/09 06:12:15;;;;;;;2.53;1.20;;;19.60;64.30;20.30;97476.00;;;;5032775;28;20571;-86
2022/07/09 06:14:44;;;;;;;2.13;1.50;;;19.60;64.20;20.30;97482.00;;;;5032717;28;20221;-86
2022/07/09 06:17:11;;;;;;;1.07;0.97;;;19.60;64.30;20.30;97490.00;;;;5030458;28;20221;-86
2022/07/09 06:19:38;;;;;;;1.30;1.20;;;19.60;64.40;20.40;97485.00;;;;5018411;28;20190;-86
2022/07/09 06:22:06;;;;;;;3.70;1.20;;;19.60;64.30;20.40;97483.00;;;;5012860;28;20612;-86
2022/07/09 06:24:33;;;;;;;2.03;1.03;;;19.60;64.30;20.40;97484.00;;;;5012730;28;20289;-86
2022/07/09 06:27:00;;;;;;;1.43;1.10;;;19.60;64.40;20.50;97481.00;;;;5024629;28;20249;-87
2022/07/09 06:29:27;;;;;;;1.57;0.83;;;19.70;64.60;20.50;97482.00;;;;5031992;28;20223;-86
2022/07/09 06:31:59;;;;;;;1.43;1.20;;;19.70;64.60;20.50;97483.00;;;;5031180;28;20261;-86
2022/07/09 06:34:27;;;;;;;0.90;0.90;;;19.70;64.70;20.60;97488.00;;;;5041993;28;20756;-86
2022/07/09 06:36:54;;;;;;;1.77;1.07;;;19.80;64.60;20.60;97484.00;;;;5029780;28;20568;-86
2022/07/09 06:42:07;;;;;;;1.97;0.90;;;19.90;64.60;20.80;97479.00;;;;5027824;28;20212;-87
2022/07/09 06:44:34;;;;;;;1.60;1.20;;;19.90;64.50;20.80;97472.00;;;;5031304;28;20229;-86
2022/07/09 06:49:35;;;;;;;1.10;1.00;;;20.00;64.30;21.00;97470.00;;;;5108516;22;20588;-87
2022/07/09 06:52:02;;;;;;;0.73;0.70;;;20.10;64.40;21.10;97478.00;;;;5091669;28;20199;-86
2022/07/09 06:54:30;;;;;;;1.37;1.27;;;20.10;64.60;21.20;97473.00;;;;5091204;28;20730;-84
2022/07/09 06:56:57;;;;;;;1.60;1.00;;;20.20;64.70;21.30;97474.00;;;;5091908;28;20305;-84
2022/07/09 06:59:24;;;;;;;2.90;1.10;;;20.30;64.50;21.30;97476.00;;;;5090607;28;20236;-84
2022/07/09 07:01:52;;;;;;;2.87;1.30;;;20.40;64.60;21.40;97471.00;;;;5086939;28;20296;-85
2022/07/09 07:04:20;;;;;;;0.77;0.77;;;20.40;64.30;21.50;97479.00;;;;5097132;28;20280;-83
2022/07/09 07:06:48;;;;;;;2.30;1.17;;;20.50;64.20;21.50;97478.00;;;;5093595;28;20215;-83
2022/07/09 07:09:18;;;;;;;1.40;1.00;;;20.50;64.10;21.60;97485.00;;;;5096431;28;20237;-84
2022/07/09 07:11:46;;;;;;;1.80;1.20;;;20.60;64.20;21.70;97485.00;;;;5087075;28;20202;-84
2022/07/09 07:14:13;;;;;;;0.80;0.80;;;20.70;64.40;21.80;97492.00;;;;5079212;28;20220;-83
2022/07/09 07:16:40;;;;;;;1.17;1.00;;;20.70;64.10;21.90;97485.00;;;;5075413;28;20222;-84
2022/07/09 07:19:08;;;;;;;1.83;1.53;;;20.80;64.00;22.00;97484.00;;;;5088496;28;20195;-83
2022/07/09 07:21:35;;;;;;;1.27;1.17;;;20.90;64.00;22.10;97484.00;;;;5099858;28;20195;-83
2022/07/09 07:24:05;;;;;;;1.27;1.03;;;21.00;63.80;22.20;97484.00;;;;5087763;28;20226;-84
2022/07/09 07:26:33;;;;;;;1.17;0.90;;;21.10;63.70;22.30;97480.00;;;;5099394;28;20257;-83
2022/07/09 07:29:00;;;;;;;1.10;0.97;;;21.20;63.30;22.40;97479.00;;;;5087266;28;20207;-83
2022/07/09 07:31:27;;;;;;;1.10;1.00;;;21.20;63.20;22.50;97479.00;;;;5094670;28;20223;-82
2022/07/09 07:33:56;;;;;;;1.40;1.20;;;21.30;63.30;22.60;97479.00;;;;5096861;28;20658;-83
2022/07/09 07:36:24;;;;;;;1.53;1.03;;;21.40;63.50;22.70;97470.00;;;;5096427;28;20699;-84
2022/07/09 07:38:51;;;;;;;1.17;1.00;;;21.50;63.10;22.70;97470.00;;;;5092565;28;20199;-84
2022/07/09 07:41:20;;;;;;;1.13;0.90;;;21.60;62.80;22.80;97472.00;;;;5097559;28;20265;-84
2022/07/09 07:43:48;;;;;;;2.73;1.10;;;21.60;62.10;22.90;97464.00;;;;5094538;28;20272;-84
2022/07/09 07:46:16;;;;;;;1.50;1.27;;;21.70;62.00;23.00;97469.00;;;;5097252;28;20242;-84
2022/07/09 07:48:43;;;;;;;2.57;1.20;;;21.80;61.90;23.10;97471.00;;;;5090207;28;20230;-85
2022/07/09 07:51:10;;;;;;;1.50;1.20;;;21.80;61.90;23.10;97471.00;;;;5094212;28;20254;-84
2022/07/09 07:53:38;;;;;;;1.33;0.97;;;22.00;61.90;23.30;97464.00;;;;5097887;28;20195;-83
2022/07/09 07:56:07;;;;;;;1.03;1.00;;;22.00;61.80;23.40;97472.00;;;;5087831;28;20640;-84
2022/07/09 07:58:36;;;;;;;1.63;1.07;;;22.10;61.80;23.50;97467.00;;;;5098574;28;20281;-83
2022/07/09 08:01:04;;;;;;;1.87;0.90;;;22.20;61.90;23.60;97455.00;;;;5110898;28;20204;-85
2022/07/09 08:03:31;;;;;;;1.50;0.93;;;22.40;62.20;23.70;97462.00;;;;5112156;28;20253;-86
2022/07/09 08:05:58;;;;;;;1.20;1.07;;;22.50;62.00;23.80;97460.00;;;;5110098;28;20241;-83
2022/07/09 08:08:25;;;;;;;1.20;1.00;;;22.60;61.20;24.00;97451.00;;;;5109195;28;20565;-86
2022/07/09 08:10:52;;;;;;;1.50;0.90;;;22.70;61.20;24.10;97452.00;;;;5108241;28;20615;-83
2022/07/09 08:13:19;;;;;;;1.10;0.77;;;22.80;61.00;24.30;97450.00;;;;5107122;28;20194;-84
2022/07/09 08:15:48;;;;;;;1.10;1.00;;;22.90;60.60;24.40;97447.00;;;;5106291;28;20222;-83
2022/07/09 08:18:15;;;;;;;1.43;0.80;;;23.10;60.00;24.60;97450.00;;;;5088803;28;20227;-83
2022/07/09 08:20:43;;;;;;;2.10;0.80;;;23.30;59.90;24.70;97447.00;;;;5105899;28;20212;-83
2022/07/09 08:23:11;;;;;;;2.50;1.00;;;23.40;60.50;25.00;97451.00;;;;5103866;28;20615;-83
2022/07/09 08:25:38;;;;;;;0.93;0.60;;;23.60;60.50;25.10;97448.00;;;;5101527;28;20209;-83
2022/07/09 08:28:06;;;;;;;2.03;0.97;;;23.70;59.60;25.30;97451.00;;;;5100622;28;20731;-84
2022/07/09 08:30:33;;;;;;;1.40;0.87;;;23.90;59.60;25.50;97444.00;;;;5101571;28;20245;-84
2022/07/09 08:33:02;;;;;;;1.60;1.10;;;24.10;59.60;25.70;97445.00;;;;5087721;28;20196;-83
2022/07/09 08:35:29;;;;;;;1.83;0.80;;;24.30;58.90;25.80;97445.00;;;;5082178;28;20216;-83
2022/07/09 08:37:56;;;;;;;1.83;0.70;;;24.40;58.80;26.00;97454.00;;;;5098441;28;20610;-84
2022/07/09 08:40:26;;;;;;;0.97;0.90;;;24.60;58.30;26.20;97452.00;;;;5099145;28;20238;-84
2022/07/09 08:42:55;;;;;;;1.20;0.90;;;24.70;57.70;26.30;97453.00;;;;5096087;28;20195;-85
2022/07/09 08:45:25;;;;;;;1.03;0.70;;;24.90;56.80;26.40;97455.00;;;;5091057;28;20218;-83
2022/07/09 08:47:54;;;;;;;0.73;0.60;;;25.00;56.90;26.50;97459.00;;;;5095915;28;20298;-84
2022/07/09 08:50:24;;;;;;;2.30;0.60;;;25.10;56.50;26.60;97454.00;;;;5095159;28;20223;-85
2022/07/09 08:52:55;;;;;;;1.37;0.67;;;25.20;56.30;26.80;97458.00;;;;5090653;28;20215;-85
2022/07/09 08:55:23;;;;;;;0.73;0.70;;;25.40;56.10;26.90;97450.00;;;;5093947;28;20243;-86
2022/07/09 08:57:51;;;;;;;1.77;0.70;;;25.50;55.50;27.10;97454.00;;;;5095034;28;20238;-83
2022/07/09 09:00:18;;;;;;;1.07;0.70;;;25.60;55.00;27.20;97449.00;;;;5095510;28;20658;-83
2022/07/09 09:02:45;;;;;;;1.50;0.60;;;25.70;55.10;27.20;97453.00;;;;5094344;28;20219;-82
2022/07/09 09:05:15;;;;;;;1.13;0.40;;;25.80;55.10;27.30;97457.00;;;;5096921;28;20637;-83
2022/07/09 09:07:44;;;;;;;1.57;0.70;;;25.90;55.20;27.40;97455.00;;;;5096563;28;20266;-84
2022/07/09 09:10:23;;;;;;;0.80;0.60;;;26.00;54.60;27.50;97449.00;;;;5090561;28;20281;-83
2022/07/09 09:12:55;;;;;;;1.70;0.73;;;26.10;54.10;27.60;97447.00;;;;5093253;28;20199;-84
2022/07/09 09:15:23;;;;;;;2.40;0.80;;;26.20;54.60;27.80;97441.00;;;;5080326;28;20245;-84
2022/07/09 09:17:50;;;;;;;1.07;0.70;;;26.30;54.60;28.00;97441.00;;;;5072961;28;20220;-85
2022/07/09 09:20:19;;;;;;;1.50;0.90;;;26.50;54.50;28.20;97433.00;;;;5097734;28;20199;-83
2022/07/09 09:22:50;;;;;;;1.57;0.50;;;26.60;54.00;28.40;97432.00;;;;5097947;28;20199;-83
2022/07/09 09:25:19;;;;;;;0.90;0.70;;;26.80;53.80;28.60;97426.00;;;;5096106;28;20838;-85
2022/07/09 09:27:57;;;;;;;0.80;0.70;;;26.90;53.00;28.80;97433.00;;;;5094755;28;20206;-84
2022/07/09 09:30:25;;;;;;;3.65;0.73;;;27.10;52.00;29.00;97435.00;;;;5083533;28;20201;-84
2022/07/09 09:32:57;;;;;;;1.98;0.60;;;27.30;52.20;29.10;97426.00;;;;5092546;28;20699;-81
2022/07/09 09:35:26;;;;;;;1.35;0.50;;;27.50;51.60;29.30;97428.00;;;;5089540;28;21055;-83
2022/07/09 09:37:55;;;;;;;1.50;0.60;;;27.60;51.50;29.30;97434.00;;;;5090003;28;20193;-85
2022/07/09 09:40:23;;;;;;;4.47;0.88;;;27.70;50.30;29.30;97419.00;;;;5089828;28;20252;-85
2022/07/09 09:42:50;;;;;;;0.98;0.70;;;27.80;50.90;29.40;97428.00;;;;5081985;28;20230;-85
2022/07/09 09:45:18;;;;;;;1.65;0.60;;;27.90;50.40;29.50;97416.00;;;;5094150;28;20195;-84
2022/07/09 09:47:49;;;;;;;1.30;0.65;;;28.00;50.20;29.60;97427.00;;;;5084178;28;20255;-85
2022/07/09 09:50:19;;;;;;;0.50;0.47;;;28.10;50.00;29.70;97418.00;;;;5089256;28;20211;-85
2022/07/09 09:52:48;;;;;;;0.73;0.40;;;28.20;49.70;29.70;97410.00;;;;5078176;28;20282;-85
2022/07/09 09:55:19;;;;;;;1.02;0.40;;;28.20;49.80;29.70;97417.00;;;;5084404;28;20265;-85
2022/07/09 09:57:48;;;;;;;1.05;0.50;;;28.30;49.70;29.90;97411.00;;;;5089092;28;20219;-85
2022/07/09 10:00:17;;;;;;;0.60;0.47;;;28.40;49.60;30.20;97403.00;;;;5080441;28;20210;-85
2022/07/09 10:02:47;;;;;;;1.25;0.77;;;28.50;49.20;30.40;97402.00;;;;5082075;28;20215;-85
2022/07/09 10:05:14;;;;;;;0.95;0.65;;;28.70;49.60;30.60;97396.00;;;;5079618;28;20629;-85
2022/07/09 10:07:44;;;;;;;0.73;0.52;;;28.80;49.80;30.90;97407.00;;;;5083127;28;20211;-85
2022/07/09 10:10:21;;;;;;;1.02;0.80;;;29.00;49.70;31.00;97404.00;;;;5081992;28;20206;-85
2022/07/09 10:12:48;;;;;;;1.77;0.60;;;29.20;47.60;30.90;97412.00;;;;5079406;28;20728;-85
2022/07/09 10:15:34;;;;;;;0.85;0.60;;;29.30;48.10;30.80;97413.00;;;;5079040;28;20317;-85
2022/07/09 10:18:12;;;;;;;1.20;0.60;;;29.30;46.80;30.70;97401.00;;;;5082362;28;20253;-86
2022/07/09 10:20:43;;;;;;;0.65;0.45;;;29.30;46.00;30.50;97402.00;;;;5084438;28;20640;-85
2022/07/09 10:23:21;;;;;;;2.20;0.50;;;29.30;46.70;30.30;97400.00;;;;5086327;28;20287;-85
2022/07/09 10:25:55;;;;;;;0.70;0.50;;;29.20;46.40;30.10;97407.00;;;;5082348;28;20344;-85
2022/07/09 10:28:24;;;;;;;0.57;0.38;;;29.10;46.30;30.00;97412.00;;;;5088054;28;20736;-85
2022/07/09 10:30:53;;;;;;;0.68;0.50;;;28.90;46.70;29.80;97406.00;;;;5085885;28;20194;-86
2022/07/09 10:33:25;;;;;;;1.20;0.70;;;28.90;46.90;29.70;97405.00;;;;5084428;28;20192;-85
2022/07/09 10:35:54;;;;;;;2.22;0.88;;;28.70;46.90;29.60;97404.00;;;;5089356;28;20219;-85
2022/07/09 10:38:24;;;;;;;1.20;0.60;;;28.60;46.80;29.40;97401.00;;;;5083846;28;20238;-85
2022/07/09 10:41:01;;;;;;;1.20;0.70;;;28.40;46.30;29.30;97398.00;;;;5082359;28;20249;-84
2022/07/09 10:43:45;;;;;;;0.70;0.50;;;28.30;46.60;29.10;97402.00;;;;5088771;28;20294;-85
2022/07/09 10:46:14;;;;;;;0.98;0.50;;;28.20;46.90;29.00;97401.00;;;;5083860;28;20302;-84
2022/07/09 10:48:42;;;;;;;1.15;0.40;;;28.10;47.00;29.00;97397.00;;;;5090252;28;20688;-85
2022/07/09 10:51:09;;;;;;;1.17;0.47;;;28.00;47.40;28.90;97394.00;;;;5089157;28;20282;-85
2022/07/09 10:53:36;;;;;;;0.73;0.52;;;27.90;47.80;28.90;97388.00;;;;5082035;28;20285;-85
2022/07/09 10:56:07;;;;;;;1.27;0.50;;;27.80;48.10;28.90;97398.00;;;;5088978;28;20269;-84
2022/07/09 10:58:34;;;;;;;0.45;0.30;;;27.80;47.80;28.90;97396.00;;;;5082773;28;20191;-85
2022/07/09 11:01:04;;;;;;;2.67;0.50;;;27.80;46.90;28.90;97388.00;;;;5089061;28;20242;-86
2022/07/09 11:03:32;;;;;;;0.60;0.40;;;27.70;46.80;28.80;97382.00;;;;5090129;28;20241;-85